アムステルダム/スキポール の空港の天気 - METARとTAF

スキポール空港(アムステルダム) ( EHAM / AMS ) - オランダ アムステルダム
飛行場実況気象(Metar)
観測時間10/19 20:25 CEST (10/19 18:25 UTC)
風向・風速北東 2m/s
視程10km以上
天気現象
少しの雲 雲底高度 980m
気温9℃
湿度81%
気圧1026hPa
METAREHAM 191825Z 05003KT 9999 FEW032 09/06 Q1026 NOSIG
過去の天気等 Google飛行場航空写真 Wunderground天気予報

過去48時間のMETAR

飛行場予報(TAF)
発表時間: 10/19 19:06 CEST (10/19 17:06 UTC)
予報対象時間: 19日20時 CEST ~ 21日2時 CEST
風向・風速北 2m/s
視程10km以上
少しの雲 雲底高度 910m
20日2時 CEST ~ 20日5時 CEST に徐々に
視程7000m
天気現象地霧
20日4時 CEST ~ 20日9時 CEST に 確率 30% で一時的に
視程500m
天気現象散在した霧
20日8時 CEST ~ 20日11時 CEST に徐々に
風向・風速南西 3m/s
視程10km以上
天気現象運行に影響にある天気現象が終了
TAF EHAM 191706Z 1918/2024 01004KT 9999 FEW030
BECMG 2000/2003 7000 MIFG
PROB30 TEMPO 2002/2007 0500 BCFG
BECMG 2006/2009 22005KT 9999 NSW